El Centro Naval Air Facility, CA

05:15 PDT le 22 octobre 2014 (GMT -0700)
Imperial County | Change Station
CLOSE
Current Station
Aéroport
Location: Imperial,
Altitude: -56 ft
Stations météo à proximité

Alt. -56 ft 32.83 °N, 115.58 °W | Updated 22 minutes ago

Ciel dégagé
Ciel dégagé
68 ° F
Paraît 68 ° F
N
0
Vent Variable Vent de Nord

Aujourd'hui
Haut(e) -- | Bas -- ° F
--% Risque de précip.
Hier
Haut(e) -- | Bas -- ° F
Precip. -- pouce
6:52 AM 6:01 PM
Lune descendante, 2% visible
Pression 29.79 pouce
Visibilité 10.0 Miles terrestres
Nuages Ciel dégagé
Point de rosée 44 ° F
Humidité 42%
Précipitations 0.00 pouce
Profondeur de la couche neigeuse Non disponible.
UV 0 sur 12
Pollen 6.50 sur 12
Ozone Bon
PM2.5 Moyen
Flu Activity Sporadic
METAR KIPL 221153Z AUTO 00000KT 10SM CLR 20/07 A2979 RMK AO2 SLP087 T02000067 10244 20194 50004

More Conditions Fewer Conditions

Pression 29.79 pouce
Visibilité 10.0 Miles terrestres
Nuages Ciel dégagé
Point de rosée 44 ° F
Humidité 42%
Précipitations 0.00 pouce
Profondeur de la couche neigeuse Non disponible.
UV 0 sur 12
Pollen 6.50 sur 12
Ozone Bon
PM2.5 Moyen
Flu Activity Sporadic
METAR KIPL 221153Z AUTO 00000KT 10SM CLR 20/07 A2979 RMK AO2 SLP087 T02000067 10244 20194 50004

More Conditions Fewer Conditions

10-Day Weather Forecast

Almanac

Astronomie

Oct. 22, 2014 Lever Coucher
Temps réel 06:52 PDT 18:01 PDT
Crépuscule civil 06:27 PDT 18:26 PDT
Crépuscule nautique 05:58 PDT 18:55 PDT
Crépuscule astronomique 05:29 PDT 19:23 PDT
Lune 05:41 PDT 17:28 PDT
Durée de lumière visible 11h 59m
Longueur du jour
11h 09m
Tomorrow will be 1m 53s shorter.
Lune descendante, 2% of the Moon is Illuminated
Aujourd'hui
Lune descendante
Oct 23
Nouveau
Oct 30
Premier quartier
Nov 6
Pleine lune
Nov 14
Dernier quartier

Extrêmes aujourd'hui

State Highs State Lows

Community

WunderPhotos

Upload Photos

1,763,906 Photos téléchargées !

Nearby

Qualité de l'air

  Qualité de l'air Indice de la qualité de l'air Polluant
Hier Moyen
PM2.5
Hier Bon
OZONE
Actuel Moyen
PM2.5
Actuel Bon
OZONE

Épaisseur de neige

Station Depth Altitude
Virginia Lakes Ridge 0 in 9200 ft
Leavitt Lake 1 in 9400 ft
Leavitt Meadows 1 in 7200 ft
Sonora Pass 0 in 8800 ft
Summit Meadow 1 in 9122 ft

Activité sismique

Ville Distance Mag. Time & Date
Delta, Mexico 37 Miles terrestres 2.5 20:53 PDT
2014-10-21
Minimum magnitude displayed is 2.5.

Températures des eaux côtières

Lieu Température
Aucun rapport de station

Stations météo à proximité